Time;durP1;ratioP1;P1;durP2;ratioP2;P2;SDS_P1;SDS_P2;PMS_P1;PMS_P2;Temp;Humidity;BMP_temperature;BMP_pressure;BME280_temperature;BME280_humidity;BME280_pressure;Samples;Min_cycle;Max_cycle;Signal;HPM_P1;HPM_P2
2022/11/13 00:00:53;;;;;;;23.33;20.88;;;6.20;99.90;;;;;;5097394;27;20652;-82
2022/11/13 00:03:19;;;;;;;21.85;19.77;;;6.30;99.90;;;;;;5118834;27;21804;-82
2022/11/13 00:05:45;;;;;;;22.35;20.15;;;6.30;99.90;;;;;;5116105;27;20040;-82
2022/11/13 00:08:10;;;;;;;22.73;20.45;;;6.30;99.90;;;;;;5116302;27;20566;-81
2022/11/13 00:10:36;;;;;;;22.35;20.08;;;6.20;99.90;;;;;;5102845;28;20055;-81
2022/11/13 00:13:02;;;;;;;23.17;20.88;;;6.20;99.90;;;;;;5101536;28;20062;-81
2022/11/13 00:15:31;;;;;;;24.08;21.48;;;6.10;99.90;;;;;;5101865;28;20086;-82
2022/11/13 00:18:01;;;;;;;23.33;20.92;;;6.00;99.90;;;;;;5120388;27;20051;-81
2022/11/13 00:20:27;;;;;;;24.08;21.60;;;6.00;99.90;;;;;;5116825;27;20104;-82
2022/11/13 00:22:53;;;;;;;23.42;21.00;;;6.00;99.90;;;;;;5098811;28;20047;-82
2022/11/13 00:25:19;;;;;;;27.27;24.25;;;6.10;99.90;;;;;;5100654;28;20054;-74
2022/11/13 00:27:44;;;;;;;22.52;20.27;;;6.10;99.90;;;;;;5103549;27;20039;-74
2022/11/13 00:30:10;;;;;;;29.25;26.42;;;6.10;99.90;;;;;;5072402;27;20294;-74
2022/11/13 00:32:36;;;;;;;24.88;22.50;;;6.10;99.90;;;;;;5083333;27;20139;-74
2022/11/13 00:35:03;;;;;;;24.13;21.73;;;6.10;99.90;;;;;;5081649;27;20470;-74
2022/11/13 00:37:29;;;;;;;23.20;20.90;;;6.20;99.90;;;;;;5099846;27;20100;-74
2022/11/13 00:39:55;;;;;;;24.45;22.05;;;6.20;99.90;;;;;;5106226;27;20047;-73
2022/11/13 00:42:20;;;;;;;24.13;21.83;;;6.20;99.90;;;;;;5087321;27;20074;-82
2022/11/13 00:44:46;;;;;;;22.75;20.60;;;6.30;99.90;;;;;;5122800;27;20439;-82
2022/11/13 00:47:12;;;;;;;21.23;19.27;;;6.20;99.90;;;;;;5101932;27;20047;-82
2022/11/13 00:49:38;;;;;;;22.58;20.42;;;6.20;99.90;;;;;;5122846;27;20043;-81
2022/11/13 00:52:04;;;;;;;19.77;17.92;;;6.20;99.90;;;;;;5120918;27;20039;-82
2022/11/13 00:54:29;;;;;;;21.08;19.17;;;6.20;99.90;;;;;;5123737;27;20035;-81
2022/11/13 00:56:55;;;;;;;19.75;17.85;;;6.10;99.90;;;;;;5101720;27;20723;-82
2022/11/13 00:59:21;;;;;;;29.23;26.10;;;6.10;99.90;;;;;;5121509;27;20051;-81
2022/11/13 01:01:47;;;;;;;21.83;19.63;;;6.20;99.90;;;;;;5120709;27;20052;-82
2022/11/13 01:04:12;;;;;;;22.55;20.35;;;6.20;99.90;;;;;;5122835;27;20155;-82
2022/11/13 01:06:38;;;;;;;21.00;19.08;;;6.20;99.90;;;;;;5101562;27;20035;-83
2022/11/13 01:09:05;;;;;;;22.52;20.45;;;6.20;99.90;;;;;;5087331;27;20100;-83
2022/11/13 01:11:31;;;;;;;22.85;20.60;;;6.20;99.90;;;;;;5121710;27;20058;-83
2022/11/13 01:13:57;;;;;;;24.98;22.45;;;6.20;99.90;;;;;;5120084;27;20053;-80
2022/11/13 01:16:25;;;;;;;24.92;22.52;;;6.30;99.90;;;;;;5114311;27;21861;-82
2022/11/13 01:18:54;;;;;;;21.95;19.95;;;6.30;99.90;;;;;;5103346;27;20035;-82
2022/11/13 01:21:23;;;;;;;22.75;20.38;;;6.30;99.90;;;;;;5144970;27;20545;-82
2022/11/13 01:23:50;;;;;;;23.65;21.38;;;6.30;99.90;;;;;;5102121;27;20527;-82
2022/11/13 01:26:18;;;;;;;29.40;26.40;;;6.30;99.90;;;;;;5116966;27;20039;-82
2022/11/13 01:28:44;;;;;;;24.10;21.55;;;6.20;99.90;;;;;;5106785;27;20058;-82
2022/11/13 01:31:15;;;;;;;24.98;22.30;;;6.30;99.90;;;;;;5077607;27;20578;-81
2022/11/13 01:33:43;;;;;;;23.98;21.50;;;6.30;99.90;;;;;;5119425;27;20059;-81
2022/11/13 01:36:18;;;;;;;24.20;21.90;;;6.30;99.90;;;;;;5116698;27;20565;-82
2022/11/13 01:38:44;;;;;;;23.10;20.95;;;6.40;99.90;;;;;;5104333;27;20051;-82
2022/11/13 01:41:17;;;;;;;24.23;21.73;;;6.50;99.90;;;;;;5103369;27;20493;-82
2022/11/13 01:43:43;;;;;;;22.55;20.30;;;6.50;99.90;;;;;;5121120;27;20054;-81
2022/11/13 01:46:12;;;;;;;23.10;20.88;;;6.50;99.90;;;;;;5117955;27;20051;-82
2022/11/13 01:48:41;;;;;;;21.48;19.48;;;6.50;99.90;;;;;;5122923;27;20062;-82
2022/11/13 01:51:39;;;;;;;23.50;21.10;;;6.50;99.90;;;;;;5118261;27;20508;-82
2022/11/13 01:54:10;;;;;;;25.10;22.70;;;6.50;99.90;;;;;;5118563;27;20063;-82
2022/11/13 01:56:36;;;;;;;25.50;23.10;;;6.40;99.90;;;;;;5110782;27;20055;-82
2022/11/13 01:59:16;;;;;;;25.52;23.23;;;6.40;99.90;;;;;;5097782;27;21243;-82
2022/11/13 02:01:42;;;;;;;25.55;23.13;;;6.40;99.90;;;;;;5111884;27;20107;-82
2022/11/13 02:04:08;;;;;;;23.40;21.15;;;6.40;99.90;;;;;;5085214;27;20039;-81
2022/11/13 02:06:52;;;;;;;25.85;23.35;;;6.50;99.90;;;;;;5116356;27;20078;-81
2022/11/13 02:09:23;;;;;;;26.30;23.77;;;6.50;99.90;;;;;;5100506;27;20127;-81
2022/11/13 02:11:49;;;;;;;;;;;6.40;99.90;;;;;;5116110;27;20047;-81
2022/11/13 02:14:16;;;;;;;27.55;24.98;;;6.40;99.90;;;;;;5100206;27;20404;-81
2022/11/13 02:16:44;;;;;;;26.52;24.02;;;6.40;99.90;;;;;;5100880;27;20078;-73
2022/11/13 02:19:17;;;;;;;26.10;23.63;;;6.50;99.90;;;;;;5117095;27;20768;-73
2022/11/13 02:22:02;;;;;;;26.55;24.00;;;6.50;99.90;;;;;;5100539;27;21321;-74
2022/11/13 02:24:38;;;;;;;27.85;25.10;;;6.60;99.90;;;;;;5116629;27;20046;-75
2022/11/13 02:27:10;;;;;;;27.08;24.55;;;6.60;99.90;;;;;;5100062;27;20042;-74
2022/11/13 02:29:35;;;;;;;28.08;25.52;;;6.70;99.90;;;;;;5117462;27;20497;-73
2022/11/13 02:32:02;;;;;;;29.63;26.85;;;6.70;99.90;;;;;;5117741;27;20124;-73
2022/11/13 02:34:28;;;;;;;33.97;30.65;;;6.60;99.90;;;;;;5101156;27;20035;-73
2022/11/13 02:36:56;;;;;;;29.42;26.75;;;6.60;99.90;;;;;;5083419;27;20166;-73
2022/11/13 02:39:22;;;;;;;29.00;26.17;;;6.60;99.90;;;;;;5115534;27;20500;-73
2022/11/13 02:41:48;;;;;;;28.23;25.63;;;6.70;99.90;;;;;;5083566;27;20162;-73
2022/11/13 02:44:14;;;;;;;28.52;25.75;;;6.60;99.90;;;;;;5102103;27;20051;-73
2022/11/13 02:46:39;;;;;;;27.13;24.60;;;6.70;99.90;;;;;;5118533;27;20113;-72
2022/11/13 02:49:06;;;;;;;26.45;23.95;;;6.60;99.90;;;;;;5114137;27;20051;-73
2022/11/13 02:51:32;;;;;;;27.10;24.60;;;6.60;99.90;;;;;;5118503;27;20048;-74
2022/11/13 02:54:01;;;;;;;26.98;24.27;;;6.60;99.90;;;;;;5119859;27;20050;-81
2022/11/13 02:56:27;;;;;;;27.73;25.13;;;6.60;99.90;;;;;;5116922;27;20127;-82
2022/11/13 02:58:53;;;;;;;26.00;23.67;;;6.50;99.90;;;;;;5101648;27;20047;-81
2022/11/13 03:01:19;;;;;;;27.73;25.13;;;6.50;99.90;;;;;;5125884;27;20057;-81
2022/11/13 03:03:44;;;;;;;30.73;28.02;;;6.50;99.90;;;;;;5100149;27;20042;-81
2022/11/13 03:06:10;;;;;;;30.05;27.10;;;6.50;99.90;;;;;;5091527;27;20040;-82
2022/11/13 03:08:36;;;;;;;30.80;27.90;;;6.60;99.90;;;;;;5118141;27;20043;-81
2022/11/13 03:11:09;;;;;;;29.08;26.17;;;6.60;99.90;;;;;;5091739;27;20055;-81
2022/11/13 03:13:36;;;;;;;28.75;26.08;;;6.70;99.90;;;;;;5095186;27;20111;-81
2022/11/13 03:16:13;;;;;;;29.20;26.40;;;6.70;99.90;;;;;;5117286;27;20066;-81
2022/11/13 03:18:40;;;;;;;28.10;25.50;;;6.80;99.90;;;;;;5099796;28;20466;-82
2022/11/13 03:21:08;;;;;;;27.13;24.73;;;6.70;99.90;;;;;;5115144;27;20129;-81
2022/11/13 03:23:39;;;;;;;28.33;25.58;;;6.70;99.90;;;;;;5123107;27;20096;-81
2022/11/13 03:26:07;;;;;;;28.80;26.05;;;6.80;99.90;;;;;;5100885;27;20040;-81
2022/11/13 03:28:33;;;;;;;28.95;26.25;;;6.80;99.90;;;;;;5112928;27;20123;-81
2022/11/13 03:31:00;;;;;;;27.48;24.92;;;6.80;99.90;;;;;;5113121;27;20050;-82
2022/11/13 03:33:25;;;;;;;29.38;26.48;;;6.80;99.90;;;;;;5085125;28;20054;-81
2022/11/13 03:35:51;;;;;;;28.80;26.13;;;6.70;99.90;;;;;;5115513;27;20051;-81
2022/11/13 03:38:17;;;;;;;30.48;27.63;;;6.70;99.90;;;;;;5142519;27;20031;-82
2022/11/13 03:40:43;;;;;;;29.50;26.80;;;6.60;99.90;;;;;;5100273;27;20040;-82
2022/11/13 03:43:09;;;;;;;29.25;26.48;;;6.60;99.90;;;;;;5095917;28;20047;-82
2022/11/13 03:45:34;;;;;;;31.63;28.45;;;6.50;99.90;;;;;;5088114;28;20040;-82
2022/11/13 03:48:00;;;;;;;33.13;29.90;;;6.50;99.90;;;;;;5111479;28;20058;-82
2022/11/13 03:50:26;;;;;;;28.38;25.48;;;6.50;99.90;;;;;;5120109;27;20046;-82
2022/11/13 03:52:54;;;;;;;28.27;25.48;;;6.40;99.90;;;;;;5100666;28;20092;-82
2022/11/13 03:55:20;;;;;;;29.38;26.50;;;6.50;99.90;;;;;;5113433;27;20139;-82
2022/11/13 03:57:46;;;;;;;30.35;27.58;;;6.50;99.90;;;;;;5115956;27;20155;-82
2022/11/13 04:00:13;;;;;;;29.13;26.33;;;6.50;99.90;;;;;;5114455;27;20055;-82
2022/11/13 04:02:41;;;;;;;28.90;26.10;;;6.50;99.90;;;;;;5110552;27;20230;-82
2022/11/13 04:05:08;;;;;;;28.85;26.00;;;6.50;99.90;;;;;;5088048;27;20170;-82
2022/11/13 04:07:34;;;;;;;31.10;28.10;;;6.50;99.90;;;;;;5103712;27;20110;-82
2022/11/13 04:09:59;;;;;;;28.38;25.88;;;6.50;99.90;;;;;;5120840;27;20054;-83
2022/11/13 04:12:25;;;;;;;31.75;28.77;;;6.50;99.90;;;;;;5107232;27;20046;-82
2022/11/13 04:14:51;;;;;;;30.75;27.95;;;6.40;99.90;;;;;;5149938;27;20053;-80
2022/11/13 04:17:16;;;;;;;34.33;31.02;;;6.40;99.90;;;;;;5097816;27;20056;-82
2022/11/13 04:19:42;;;;;;;30.48;27.63;;;6.40;99.90;;;;;;5120774;27;20058;-81
2022/11/13 04:22:08;;;;;;;33.55;30.35;;;6.40;99.90;;;;;;5153182;27;20465;-81
2022/11/13 04:24:34;;;;;;;34.10;30.80;;;6.40;99.90;;;;;;5127077;27;20122;-82
2022/11/13 04:26:59;;;;;;;34.45;31.25;;;6.30;99.90;;;;;;5154978;27;20387;-81
2022/11/13 04:29:25;;;;;;;33.50;30.30;;;6.30;99.90;;;;;;5113974;27;20546;-80
2022/11/13 04:31:51;;;;;;;36.10;32.70;;;6.20;99.90;;;;;;5094375;27;20047;-80
2022/11/13 04:34:17;;;;;;;35.83;32.33;;;6.20;99.90;;;;;;5131765;27;20058;-80
2022/11/13 04:36:42;;;;;;;34.05;30.92;;;6.20;99.90;;;;;;5092226;27;20040;-81
2022/11/13 04:39:08;;;;;;;35.17;31.85;;;6.20;99.90;;;;;;5115251;27;20184;-80
2022/11/13 04:44:18;;;;;;;34.03;30.85;;;6.10;99.90;;;;;;5125443;27;20438;-80
2022/11/13 04:46:44;;;;;;;36.03;32.45;;;6.20;99.90;;;;;;5101983;27;20051;-81
2022/11/13 04:49:10;;;;;;;33.95;30.77;;;6.20;99.90;;;;;;5107494;27;20546;-81
2022/11/13 04:51:36;;;;;;;36.17;32.70;;;6.10;99.90;;;;;;5112090;27;20039;-82
2022/11/13 04:54:01;;;;;;;36.42;33.05;;;6.10;99.90;;;;;;5106358;27;20474;-82
2022/11/13 04:56:27;;;;;;;33.85;30.50;;;6.10;99.90;;;;;;5103077;27;20393;-82
2022/11/13 04:58:53;;;;;;;34.03;30.70;;;6.10;99.90;;;;;;5096382;28;20043;-82
2022/11/13 05:01:19;;;;;;;33.35;30.05;;;6.00;99.90;;;;;;5106513;27;20124;-82
2022/11/13 05:03:44;;;;;;;35.75;32.15;;;6.00;99.90;;;;;;5095086;27;20047;-82
2022/11/13 05:06:11;;;;;;;34.95;31.65;;;6.00;99.90;;;;;;5098788;27;20050;-82
2022/11/13 05:08:37;;;;;;;35.42;32.13;;;5.80;99.90;;;;;;5120179;27;20152;-82
2022/11/13 05:11:03;;;;;;;37.30;33.58;;;5.80;99.90;;;;;;5110757;27;20067;-82
2022/11/13 05:13:34;;;;;;;37.95;34.38;;;5.80;99.90;;;;;;5148346;27;20043;-81
2022/11/13 05:16:02;;;;;;;35.97;32.60;;;5.70;99.90;;;;;;5132958;27;20502;-81
2022/11/13 05:18:28;;;;;;;37.20;33.60;;;5.70;99.90;;;;;;5100045;27;20051;-81
2022/11/13 05:20:54;;;;;;;38.38;34.58;;;5.70;99.90;;;;;;5113906;27;20509;-81
2022/11/13 05:23:20;;;;;;;37.58;33.78;;;5.70;99.90;;;;;;5096099;28;20090;-82
2022/11/13 05:25:46;;;;;;;37.60;34.10;;;5.70;99.90;;;;;;5111441;27;20047;-82
2022/11/13 05:28:11;;;;;;;39.15;35.45;;;5.70;99.90;;;;;;5124499;27;20481;-81
2022/11/13 05:30:37;;;;;;;38.33;34.53;;;5.80;99.90;;;;;;5101097;28;20419;-82
2022/11/13 05:33:03;;;;;;;37.30;33.78;;;5.70;99.90;;;;;;5114534;27;20070;-81
2022/11/13 05:35:29;;;;;;;35.38;31.98;;;5.70;99.90;;;;;;5089898;28;20066;-81
2022/11/13 05:37:55;;;;;;;36.13;32.80;;;5.70;99.90;;;;;;5112837;27;20043;-81
2022/11/13 05:40:20;;;;;;;40.10;36.28;;;5.80;99.90;;;;;;5101214;28;20059;-81
2022/11/13 05:42:46;;;;;;;33.05;30.05;;;5.80;99.90;;;;;;5121047;27;20078;-81
2022/11/13 05:45:12;;;;;;;34.92;31.50;;;5.80;99.90;;;;;;5153452;27;20039;-81
2022/11/13 05:47:38;;;;;;;35.45;32.13;;;5.70;99.90;;;;;;5140666;27;20049;-81
2022/11/13 05:50:04;;;;;;;37.97;34.45;;;5.80;99.90;;;;;;5081777;28;20047;-81
2022/11/13 05:52:30;;;;;;;34.10;30.88;;;5.80;99.90;;;;;;5122472;27;20055;-81
2022/11/13 05:54:56;;;;;;;33.60;30.50;;;5.80;99.90;;;;;;5129702;27;20204;-81
2022/11/13 05:57:21;;;;;;;33.45;30.23;;;5.90;99.90;;;;;;5149341;27;20095;-81
2022/11/13 05:59:47;;;;;;;34.15;31.00;;;5.90;99.90;;;;;;5090033;28;20079;-81
2022/11/13 06:02:13;;;;;;;33.17;30.08;;;5.90;99.90;;;;;;5132777;27;20055;-81
2022/11/13 06:04:39;;;;;;;32.95;29.95;;;5.90;99.90;;;;;;5141518;27;20035;-81
2022/11/13 06:07:04;;;;;;;32.75;29.55;;;5.80;99.90;;;;;;5109083;27;20031;-81
2022/11/13 06:09:30;;;;;;;32.25;29.23;;;5.80;99.90;;;;;;5146700;27;20047;-81
2022/11/13 06:11:56;;;;;;;32.60;29.42;;;5.80;99.90;;;;;;5142613;27;20044;-81
2022/11/13 06:14:22;;;;;;;32.50;29.48;;;5.70;99.90;;;;;;5096895;28;20095;-81
2022/11/13 06:16:48;;;;;;;31.23;28.33;;;5.70;99.90;;;;;;5103616;27;20549;-81
2022/11/13 06:19:13;;;;;;;33.72;30.52;;;5.70;99.90;;;;;;5101458;28;20101;-81
2022/11/13 06:21:40;;;;;;;30.88;27.67;;;5.70;99.90;;;;;;5088946;27;20047;-80
2022/11/13 06:24:07;;;;;;;33.50;30.23;;;5.60;99.90;;;;;;5057789;28;1300456;-81
2022/11/13 06:26:35;;;;;;;32.20;29.10;;;5.60;99.90;;;;;;5121697;27;20465;-81
2022/11/13 06:29:02;;;;;;;34.45;31.00;;;5.60;99.90;;;;;;5117737;27;20558;-81
2022/11/13 06:31:30;;;;;;;31.88;28.77;;;5.60;99.90;;;;;;5098050;28;20051;-81
2022/11/13 06:33:59;;;;;;;33.17;30.08;;;5.70;99.90;;;;;;5107092;27;20052;-81
2022/11/13 06:36:30;;;;;;;32.35;29.15;;;5.50;99.90;;;;;;5111404;27;20046;-81
2022/11/13 06:38:56;;;;;;;32.90;29.80;;;5.50;99.90;;;;;;5093596;27;20046;-81
2022/11/13 06:41:30;;;;;;;33.33;30.25;;;5.50;99.90;;;;;;5121988;27;20072;-81
2022/11/13 06:43:57;;;;;;;34.03;30.83;;;5.50;99.90;;;;;;5113452;27;20657;-81
2022/11/13 06:46:25;;;;;;;33.20;30.10;;;5.40;99.90;;;;;;5099464;27;20503;-81
2022/11/13 06:48:51;;;;;;;32.22;29.08;;;5.40;99.90;;;;;;5118780;27;20055;-81
2022/11/13 06:51:19;;;;;;;32.60;29.45;;;5.40;99.90;;;;;;5100556;27;20048;-81
2022/11/13 06:53:46;;;;;;;32.88;29.77;;;5.40;99.90;;;;;;5110912;27;20043;-82
2022/11/13 06:56:12;;;;;;;33.80;30.50;;;5.30;99.90;;;;;;5110414;27;20051;-82
2022/11/13 06:58:38;;;;;;;34.88;31.50;;;5.30;99.90;;;;;;5120370;27;20035;-82
2022/11/13 07:01:12;;;;;;;32.70;29.48;;;5.30;99.90;;;;;;5099407;27;20085;-81
2022/11/13 07:03:38;;;;;;;33.03;29.67;;;5.30;99.90;;;;;;5114124;27;20077;-82
2022/11/13 07:06:06;;;;;;;33.53;30.30;;;5.20;99.90;;;;;;5095576;27;20120;-81
2022/11/13 07:08:32;;;;;;;33.25;29.90;;;5.20;99.90;;;;;;5118308;27;20411;-82
2022/11/13 07:10:58;;;;;;;35.90;32.33;;;5.20;99.90;;;;;;5113920;27;20051;-81
2022/11/13 07:13:25;;;;;;;32.63;29.40;;;5.20;99.90;;;;;;5112369;27;20058;-82
2022/11/13 07:15:51;;;;;;;34.92;31.52;;;5.20;99.90;;;;;;5115386;27;20123;-81
2022/11/13 07:18:17;;;;;;;35.15;31.65;;;5.10;99.90;;;;;;5110524;27;20043;-82
2022/11/13 07:20:43;;;;;;;33.92;30.63;;;5.10;99.90;;;;;;5101819;27;20058;-82
2022/11/13 07:23:09;;;;;;;36.40;32.85;;;5.20;99.90;;;;;;5124637;27;20113;-82
2022/11/13 07:25:35;;;;;;;35.65;32.33;;;5.10;99.90;;;;;;5086686;27;20172;-82
2022/11/13 07:28:01;;;;;;;36.97;33.47;;;5.20;99.90;;;;;;5119564;27;20082;-82
2022/11/13 07:30:27;;;;;;;36.55;33.03;;;5.20;99.90;;;;;;5115755;27;20055;-82
2022/11/13 07:32:53;;;;;;;35.45;32.10;;;5.20;99.90;;;;;;5118272;27;20394;-82
2022/11/13 07:35:19;;;;;;;35.97;32.33;;;5.30;99.90;;;;;;5084084;27;20107;-81
2022/11/13 07:37:45;;;;;;;34.58;31.25;;;5.30;99.90;;;;;;5118961;27;20051;-82
2022/11/13 07:40:12;;;;;;;38.10;34.50;;;5.30;99.90;;;;;;5120524;27;20043;-82
2022/11/13 07:42:38;;;;;;;36.00;32.58;;;5.30;99.90;;;;;;5118638;27;20101;-83
2022/11/13 07:45:05;;;;;;;34.40;31.20;;;5.40;99.90;;;;;;5104781;27;20044;-83
2022/11/13 07:47:31;;;;;;;34.90;31.33;;;5.40;99.90;;;;;;5116905;27;20062;-83
2022/11/13 07:49:57;;;;;;;35.40;32.00;;;5.40;99.90;;;;;;5105933;27;20055;-82
2022/11/13 07:52:23;;;;;;;32.97;29.75;;;5.50;99.90;;;;;;5121126;27;20338;-82
2022/11/13 07:54:49;;;;;;;32.60;29.17;;;5.50;99.90;;;;;;5099664;27;20200;-82
2022/11/13 07:57:14;;;;;;;33.33;30.27;;;5.60;99.90;;;;;;5102004;27;20062;-82
2022/11/13 07:59:40;;;;;;;32.95;29.75;;;5.70;99.90;;;;;;5120380;27;20409;-83
2022/11/13 08:02:09;;;;;;;29.58;26.85;;;5.60;99.90;;;;;;5121608;27;20471;-82
2022/11/13 08:04:35;;;;;;;30.73;27.83;;;5.70;99.90;;;;;;5103353;27;20058;-83
2022/11/13 08:07:01;;;;;;;29.55;26.75;;;5.80;99.90;;;;;;5116593;27;20043;-83
2022/11/13 08:09:27;;;;;;;28.95;26.10;;;5.80;99.90;;;;;;5152082;27;20390;-82
2022/11/13 08:11:52;;;;;;;29.40;26.60;;;5.90;99.90;;;;;;5120432;27;20057;-83
2022/11/13 08:14:18;;;;;;;28.15;25.65;;;5.90;99.90;;;;;;5104349;27;20111;-83
2022/11/13 08:16:44;;;;;;;28.17;25.52;;;6.00;99.90;;;;;;5088583;27;20051;-81
2022/11/13 08:19:10;;;;;;;27.50;24.77;;;6.00;99.90;;;;;;5098073;27;20448;-82
2022/11/13 08:21:35;;;;;;;27.58;24.83;;;6.10;99.90;;;;;;5131047;27;20043;-83
2022/11/13 08:24:01;;;;;;;26.00;23.60;;;6.20;99.90;;;;;;5119510;27;20081;-83
2022/11/13 08:26:27;;;;;;;26.10;23.73;;;6.20;99.90;;;;;;5109012;27;20468;-83
2022/11/13 08:28:53;;;;;;;26.63;24.17;;;6.20;99.90;;;;;;5128943;27;20039;-83
2022/11/13 08:31:19;;;;;;;26.88;24.35;;;6.30;99.90;;;;;;5124069;27;20050;-83
2022/11/13 08:33:44;;;;;;;25.30;22.88;;;6.30;99.90;;;;;;5117834;27;20131;-83
2022/11/13 08:36:10;;;;;;;25.52;23.17;;;6.40;99.90;;;;;;5119607;27;20031;-83
2022/11/13 08:38:36;;;;;;;23.15;21.08;;;6.30;99.90;;;;;;5128126;27;20238;-83
2022/11/13 08:41:04;;;;;;;24.95;22.75;;;6.50;99.90;;;;;;5104196;27;20532;-83
2022/11/13 08:43:30;;;;;;;23.65;21.45;;;6.50;99.90;;;;;;5117267;27;20059;-83
2022/11/13 08:45:56;;;;;;;24.33;22.13;;;6.50;99.90;;;;;;5109098;27;20082;-83
2022/11/13 08:48:23;;;;;;;21.92;19.95;;;6.60;99.90;;;;;;5120493;27;20544;-83
2022/11/13 08:50:53;;;;;;;22.75;20.55;;;6.60;99.90;;;;;;5110036;27;20057;-83
2022/11/13 08:53:19;;;;;;;;;;;6.70;99.90;;;;;;5106732;27;20055;-82
2022/11/13 08:55:45;;;;;;;21.48;19.58;;;6.80;99.90;;;;;;5121390;27;19919;-83
2022/11/13 08:58:11;;;;;;;21.45;19.30;;;6.80;99.90;;;;;;5101825;27;20048;-83
2022/11/13 09:00:37;;;;;;;21.83;19.90;;;6.90;99.90;;;;;;5104428;27;20051;-83
2022/11/13 09:03:03;;;;;;;21.30;19.48;;;6.90;99.90;;;;;;5126062;27;20092;-83
2022/11/13 09:05:29;;;;;;;22.02;20.13;;;7.00;99.90;;;;;;5107505;27;20039;-83
2022/11/13 09:08:00;;;;;;;20.73;18.85;;;7.10;99.90;;;;;;5101240;27;20227;-83
2022/11/13 09:10:27;;;;;;;20.33;18.50;;;7.10;99.90;;;;;;5120658;27;20073;-82
2022/11/13 09:13:02;;;;;;;19.85;17.95;;;7.20;99.90;;;;;;5101659;27;20039;-82
2022/11/13 09:15:29;;;;;;;20.92;18.92;;;7.20;99.90;;;;;;5126656;27;20043;-82
2022/11/13 09:17:56;;;;;;;19.95;18.02;;;7.30;99.90;;;;;;5122954;27;20039;-83
2022/11/13 09:20:22;;;;;;;19.42;17.73;;;7.40;99.90;;;;;;5101384;27;20044;-82
2022/11/13 09:22:48;;;;;;;19.63;17.80;;;7.40;99.90;;;;;;5124065;27;20496;-82
2022/11/13 09:25:14;;;;;;;19.35;17.55;;;7.50;99.90;;;;;;5102462;27;20036;-82
2022/11/13 09:27:40;;;;;;;19.35;17.55;;;7.60;99.90;;;;;;5112883;27;20042;-82
2022/11/13 09:30:06;;;;;;;17.92;16.27;;;7.70;99.90;;;;;;5092683;28;20083;-82
2022/11/13 09:32:32;;;;;;;18.25;16.40;;;7.70;99.90;;;;;;5117882;27;20058;-82
2022/11/13 09:35:01;;;;;;;18.92;17.20;;;7.70;99.90;;;;;;5094558;27;20047;-81
2022/11/13 09:37:27;;;;;;;18.05;16.45;;;7.80;99.90;;;;;;5128870;27;20058;-82
2022/11/13 09:39:52;;;;;;;18.13;16.33;;;7.80;99.90;;;;;;5101631;27;20040;-82
2022/11/13 09:42:25;;;;;;;18.35;16.63;;;7.90;99.90;;;;;;5141800;27;20278;-82
2022/11/13 09:44:59;;;;;;;17.45;15.88;;;8.00;99.90;;;;;;5122175;27;20050;-82
2022/11/13 09:47:30;;;;;;;17.27;15.68;;;8.00;99.90;;;;;;5113728;27;20043;-82
2022/11/13 09:50:03;;;;;;;17.77;16.00;;;8.10;99.90;;;;;;5114430;27;20095;-82
2022/11/13 09:52:35;;;;;;;17.50;15.70;;;8.20;99.90;;;;;;5115917;27;20107;-83
2022/11/13 09:55:03;;;;;;;16.20;14.65;;;8.30;99.90;;;;;;5111689;27;20081;-82
2022/11/13 09:57:44;;;;;;;16.60;15.10;;;8.40;99.90;;;;;;5109776;27;20402;-82
2022/11/13 10:00:18;;;;;;;16.83;15.27;;;8.50;99.90;;;;;;5091579;27;20036;-81
2022/11/13 10:02:59;;;;;;;16.02;14.43;;;8.70;99.90;;;;;;5144727;27;20446;-82
2022/11/13 10:05:50;;;;;;;16.85;15.25;;;8.80;99.90;;;;;;5101157;27;20072;-82
2022/11/13 10:08:52;;;;;;;15.75;14.35;;;8.80;99.90;;;;;;5095385;27;20040;-81
2022/11/13 10:11:23;;;;;;;14.48;13.18;;;9.00;99.90;;;;;;5112185;27;20519;-82
2022/11/13 10:13:53;;;;;;;14.80;13.40;;;9.00;99.90;;;;;;5092185;28;20051;-82
2022/11/13 10:16:44;;;;;;;15.90;14.38;;;9.10;99.90;;;;;;5112254;27;20505;-80
2022/11/13 10:19:13;;;;;;;13.27;12.07;;;9.20;99.90;;;;;;5104131;27;20434;-82
2022/11/13 10:21:50;;;;;;;13.32;12.15;;;9.30;99.90;;;;;;5110912;27;20054;-82
2022/11/13 10:24:32;;;;;;;12.82;10.95;;;9.30;99.90;;;;;;5144190;27;20036;-82
2022/11/13 10:26:59;;;;;;;12.15;11.10;;;9.30;99.90;;;;;;5113986;27;20375;-81
2022/11/13 10:29:27;;;;;;;11.82;10.73;;;9.40;99.90;;;;;;5097957;27;20055;-81
2022/11/13 10:31:53;;;;;;;12.70;11.40;;;9.40;99.90;;;;;;5103214;27;20478;-83
2022/11/13 10:34:19;;;;;;;11.57;10.50;;;9.50;99.90;;;;;;5117760;27;20100;-82
2022/11/13 10:37:07;;;;;;;12.38;9.65;;;9.60;99.90;;;;;;5107586;27;20124;-82
2022/11/13 10:39:41;;;;;;;10.80;9.70;;;9.70;99.90;;;;;;5110879;27;20192;-73
2022/11/13 10:42:43;;;;;;;11.10;10.00;;;9.80;99.90;;;;;;5114903;27;20059;-74
2022/11/13 10:45:17;;;;;;;10.63;9.63;;;10.00;99.90;;;;;;5055158;28;20051;-73
2022/11/13 10:47:47;;;;;;;10.23;9.23;;;10.10;99.90;;;;;;5093108;27;20055;-73
2022/11/13 10:50:25;;;;;;;10.00;9.02;;;10.20;99.90;;;;;;5114966;27;20225;-73
2022/11/13 10:52:53;;;;;;;9.93;8.93;;;10.30;99.90;;;;;;5135449;27;20350;-73
2022/11/13 10:55:39;;;;;;;10.52;9.50;;;10.50;99.90;;;;;;5111559;27;20081;-73
2022/11/13 10:58:31;;;;;;;10.57;8.80;;;10.50;99.90;;;;;;5151755;27;20058;-73
2022/11/13 11:00:57;;;;;;;10.60;9.50;;;10.70;99.90;;;;;;5135416;27;20070;-74
2022/11/13 11:03:24;;;;;;;9.43;8.52;;;10.80;99.90;;;;;;5122025;27;20047;-74
2022/11/13 11:05:56;;;;;;;10.15;9.05;;;10.80;99.90;;;;;;5098682;27;20042;-74
2022/11/13 11:08:33;;;;;;;9.48;8.48;;;10.90;99.90;;;;;;5113707;27;20529;-74
2022/11/13 11:14:10;;;;;;;10.00;8.77;;;11.00;99.90;;;;;;5110414;27;20130;-82
2022/11/13 11:16:36;;;;;;;9.02;8.18;;;11.10;99.90;;;;;;5094735;27;20100;-82
2022/11/13 11:19:09;;;;;;;9.57;8.50;;;11.20;99.90;;;;;;5108793;27;20043;-82
2022/11/13 11:21:37;;;;;;;8.80;7.93;;;11.30;99.90;;;;;;5095093;27;20422;-80
2022/11/13 11:24:21;;;;;;;9.32;8.43;;;11.30;99.90;;;;;;5103565;27;20075;-80
2022/11/13 11:27:00;;;;;;;8.52;7.60;;;11.40;99.90;;;;;;5112045;27;20047;-80
2022/11/13 11:29:37;;;;;;;9.23;7.70;;;11.50;99.90;;;;;;5117996;27;20062;-80
2022/11/13 11:32:13;;;;;;;8.20;7.40;;;11.60;99.90;;;;;;5099199;27;20043;-80
2022/11/13 11:35:14;;;;;;;10.30;8.07;;;11.70;99.90;;;;;;5115747;27;20416;-80
2022/11/13 11:38:09;;;;;;;7.95;7.15;;;11.70;99.90;;;;;;5112452;27;20434;-80
2022/11/13 11:40:45;;;;;;;8.60;6.60;;;11.90;99.90;;;;;;5110974;27;20501;-81
2022/11/13 11:43:28;;;;;;;6.97;6.28;;;12.00;99.90;;;;;;5100234;28;20094;-80
2022/11/13 11:45:56;;;;;;;7.13;6.05;;;12.10;99.90;;;;;;5123054;27;20043;-73
2022/11/13 11:48:26;;;;;;;7.20;5.93;;;12.20;99.90;;;;;;5108049;27;20062;-72
2022/11/13 11:51:11;;;;;;;;;;;12.30;99.90;;;;;;5113148;27;20053;-72
2022/11/13 11:53:55;;;;;;;7.63;6.20;;;12.40;99.90;;;;;;5107628;27;19976;-72
2022/11/13 11:56:52;;;;;;;6.93;6.22;;;12.50;99.90;;;;;;5093137;28;20481;-72
2022/11/13 11:59:43;;;;;;;8.45;6.95;;;12.60;99.90;;;;;;5068776;28;20090;-73
2022/11/13 12:02:39;;;;;;;7.03;6.38;;;12.60;99.90;;;;;;5086193;28;20336;-73
2022/11/13 12:05:22;;;;;;;8.63;6.55;;;12.70;99.90;;;;;;5108520;27;20532;-73
2022/11/13 12:07:48;;;;;;;6.57;5.97;;;12.80;99.90;;;;;;5106923;27;20059;-72
2022/11/13 12:10:47;;;;;;;9.82;5.72;;;12.80;99.90;;;;;;5102434;27;20055;-80
2022/11/13 12:13:35;;;;;;;6.47;5.60;;;12.90;99.90;;;;;;5061572;28;20056;-80
2022/11/13 12:16:18;;;;;;;6.50;5.35;;;12.90;99.90;;;;;;5099595;27;20404;-79
2022/11/13 12:18:53;;;;;;;5.70;5.00;;;13.00;99.90;;;;;;5127520;27;20055;-79
2022/11/13 12:21:31;;;;;;;6.30;5.57;;;13.00;99.90;;;;;;5106384;27;20047;-81
2022/11/13 12:24:00;;;;;;;8.23;6.40;;;13.10;99.90;;;;;;5112091;27;20118;-79
2022/11/13 12:26:35;;;;;;;6.82;6.13;;;13.10;99.90;;;;;;5129661;27;20069;-79
2022/11/13 12:29:01;;;;;;;6.47;5.75;;;13.10;99.90;;;;;;5113279;27;20083;-80
2022/11/13 12:31:38;;;;;;;7.13;6.43;;;13.10;99.90;;;;;;5127857;27;20101;-79
2022/11/13 12:34:27;;;;;;;6.78;6.07;;;13.20;99.90;;;;;;5106473;27;20173;-82
2022/11/13 12:36:54;;;;;;;7.93;6.53;;;13.20;99.90;;;;;;5101721;27;21315;-81
2022/11/13 12:39:42;;;;;;;8.55;6.78;;;13.20;99.90;;;;;;5101502;28;20082;-81
2022/11/13 12:42:13;;;;;;;9.38;6.47;;;13.30;99.90;;;;;;5115246;27;20062;-81
2022/11/13 12:45:01;;;;;;;6.45;5.75;;;13.30;99.90;;;;;;5104722;27;20130;-81
2022/11/13 12:47:27;;;;;;;6.85;6.20;;;13.30;99.90;;;;;;5114457;27;20371;-81
2022/11/13 12:50:04;;;;;;;9.45;6.70;;;13.20;99.90;;;;;;5116783;27;20691;-80
2022/11/13 12:52:30;;;;;;;7.20;6.50;;;13.20;99.90;;;;;;5115067;27;20043;-82
2022/11/13 12:55:06;;;;;;;9.85;6.65;;;13.10;99.90;;;;;;5100190;27;20047;-81